sensor_id;sensor_type;location;lat;lon;timestamp;pressure;altitude;pressure_sealevel;temperature;humidity
4598;BME280;62772;48.646;8.906;2023-07-16T00:03:18;96176.00;;;18.89;100.00
4598;BME280;62772;48.646;8.906;2023-07-16T00:08:18;96160.44;;;19.12;100.00
4598;BME280;62772;48.646;8.906;2023-07-16T00:13:19;96138.00;;;18.81;100.00
4598;BME280;62772;48.646;8.906;2023-07-16T00:18:20;96152.56;;;19.00;100.00
4598;BME280;62772;48.646;8.906;2023-07-16T00:23:20;96153.25;;;18.66;100.00
4598;BME280;62772;48.646;8.906;2023-07-16T00:28:21;96173.38;;;18.69;100.00
4598;BME280;62772;48.646;8.906;2023-07-16T00:33:22;96174.69;;;18.79;100.00
4598;BME280;62772;48.646;8.906;2023-07-16T00:38:22;96182.66;;;18.68;100.00
4598;BME280;62772;48.646;8.906;2023-07-16T00:43:24;96178.16;;;18.26;100.00
4598;BME280;62772;48.646;8.906;2023-07-16T00:48:25;96171.06;;;18.41;100.00
4598;BME280;62772;48.646;8.906;2023-07-16T00:53:26;96181.09;;;18.67;100.00
4598;BME280;62772;48.646;8.906;2023-07-16T00:58:26;96175.47;;;18.53;100.00
4598;BME280;62772;48.646;8.906;2023-07-16T01:03:29;96209.38;;;18.46;100.00
4598;BME280;62772;48.646;8.906;2023-07-16T01:08:35;96227.41;;;18.39;100.00
4598;BME280;62772;48.646;8.906;2023-07-16T01:13:40;96210.63;;;18.03;100.00
4598;BME280;62772;48.646;8.906;2023-07-16T01:18:41;96226.59;;;18.35;100.00
4598;BME280;62772;48.646;8.906;2023-07-16T01:34:12;96229.97;;;18.28;100.00
4598;BME280;62772;48.646;8.906;2023-07-16T01:39:14;96244.03;;;18.64;100.00
4598;BME280;62772;48.646;8.906;2023-07-16T01:44:14;96220.56;;;18.45;100.00
4598;BME280;62772;48.646;8.906;2023-07-16T01:49:15;96237.22;;;18.24;100.00
4598;BME280;62772;48.646;8.906;2023-07-16T01:54:15;96235.66;;;18.46;100.00
4598;BME280;62772;48.646;8.906;2023-07-16T01:59:16;96233.63;;;18.39;100.00
4598;BME280;62772;48.646;8.906;2023-07-16T02:04:16;96224.56;;;17.43;100.00
4598;BME280;62772;48.646;8.906;2023-07-16T02:09:20;96229.03;;;17.54;100.00
4598;BME280;62772;48.646;8.906;2023-07-16T02:14:21;96248.69;;;17.74;100.00
4598;BME280;62772;48.646;8.906;2023-07-16T02:19:21;96251.41;;;17.35;100.00
4598;BME280;62772;48.646;8.906;2023-07-16T02:24:22;96248.00;;;16.99;100.00
4598;BME280;62772;48.646;8.906;2023-07-16T02:29:25;96233.25;;;17.32;100.00
4598;BME280;62772;48.646;8.906;2023-07-16T02:34:26;96250.97;;;16.94;100.00
4598;BME280;62772;48.646;8.906;2023-07-16T02:39:28;96255.34;;;17.18;100.00
4598;BME280;62772;48.646;8.906;2023-07-16T02:44:28;96246.78;;;17.75;100.00
4598;BME280;62772;48.646;8.906;2023-07-16T02:49:28;96269.41;;;18.09;100.00
4598;BME280;62772;48.646;8.906;2023-07-16T02:54:29;96266.78;;;17.31;100.00
4598;BME280;62772;48.646;8.906;2023-07-16T02:59:29;96268.94;;;17.84;100.00
4598;BME280;62772;48.646;8.906;2023-07-16T03:04:30;96279.00;;;17.45;100.00
4598;BME280;62772;48.646;8.906;2023-07-16T03:09:30;96275.09;;;16.55;100.00
4598;BME280;62772;48.646;8.906;2023-07-16T03:14:31;96273.13;;;16.36;100.00
4598;BME280;62772;48.646;8.906;2023-07-16T03:19:31;96274.97;;;16.83;100.00
4598;BME280;62772;48.646;8.906;2023-07-16T03:24:32;96284.03;;;17.46;100.00
4598;BME280;62772;48.646;8.906;2023-07-16T03:29:33;96308.06;;;16.96;100.00
4598;BME280;62772;48.646;8.906;2023-07-16T03:34:34;96321.53;;;17.32;100.00
4598;BME280;62772;48.646;8.906;2023-07-16T03:39:35;96305.50;;;17.58;100.00
4598;BME280;62772;48.646;8.906;2023-07-16T03:44:36;96337.53;;;17.60;100.00
4598;BME280;62772;48.646;8.906;2023-07-16T03:49:38;96353.03;;;17.44;100.00
4598;BME280;62772;48.646;8.906;2023-07-16T03:54:38;96353.28;;;17.38;100.00
4598;BME280;62772;48.646;8.906;2023-07-16T03:59:40;96342.78;;;17.53;100.00
4598;BME280;62772;48.646;8.906;2023-07-16T04:04:40;96326.38;;;17.62;100.00
4598;BME280;62772;48.646;8.906;2023-07-16T04:09:41;96327.81;;;17.55;100.00
4598;BME280;62772;48.646;8.906;2023-07-16T04:14:41;96326.88;;;17.67;100.00
4598;BME280;62772;48.646;8.906;2023-07-16T04:19:42;96349.63;;;17.66;100.00
4598;BME280;62772;48.646;8.906;2023-07-16T04:24:42;96380.38;;;17.42;100.00
4598;BME280;62772;48.646;8.906;2023-07-16T04:29:42;96377.41;;;17.47;100.00
4598;BME280;62772;48.646;8.906;2023-07-16T04:34:43;96403.66;;;17.31;100.00
4598;BME280;62772;48.646;8.906;2023-07-16T04:39:43;96395.38;;;17.23;100.00
4598;BME280;62772;48.646;8.906;2023-07-16T04:44:44;96396.97;;;17.09;100.00
4598;BME280;62772;48.646;8.906;2023-07-16T04:49:44;96389.66;;;17.09;100.00
4598;BME280;62772;48.646;8.906;2023-07-16T04:54:45;96403.66;;;16.99;100.00
4598;BME280;62772;48.646;8.906;2023-07-16T04:59:45;96412.13;;;16.97;100.00
4598;BME280;62772;48.646;8.906;2023-07-16T05:04:45;96394.81;;;17.34;100.00
4598;BME280;62772;48.646;8.906;2023-07-16T05:09:48;96415.06;;;17.08;100.00
4598;BME280;62772;48.646;8.906;2023-07-16T05:14:49;96411.66;;;17.27;100.00
4598;BME280;62772;48.646;8.906;2023-07-16T05:19:50;96422.09;;;17.29;100.00
4598;BME280;62772;48.646;8.906;2023-07-16T05:24:50;96410.47;;;17.09;100.00
4598;BME280;62772;48.646;8.906;2023-07-16T05:29:51;96421.00;;;16.98;100.00
4598;BME280;62772;48.646;8.906;2023-07-16T05:34:51;96421.59;;;17.23;100.00
4598;BME280;62772;48.646;8.906;2023-07-16T05:39:51;96445.34;;;17.33;100.00
4598;BME280;62772;48.646;8.906;2023-07-16T05:44:52;96436.06;;;17.15;100.00
4598;BME280;62772;48.646;8.906;2023-07-16T05:49:53;96419.75;;;16.79;100.00
4598;BME280;62772;48.646;8.906;2023-07-16T05:54:53;96421.75;;;16.82;100.00
4598;BME280;62772;48.646;8.906;2023-07-16T05:59:54;96407.88;;;16.96;100.00
4598;BME280;62772;48.646;8.906;2023-07-16T06:04:54;96447.72;;;17.03;100.00
4598;BME280;62772;48.646;8.906;2023-07-16T06:09:54;96432.13;;;17.12;100.00
4598;BME280;62772;48.646;8.906;2023-07-16T06:14:55;96426.06;;;16.99;100.00
4598;BME280;62772;48.646;8.906;2023-07-16T06:19:55;96438.84;;;17.18;100.00
4598;BME280;62772;48.646;8.906;2023-07-16T06:24:57;96445.41;;;17.37;100.00
4598;BME280;62772;48.646;8.906;2023-07-16T06:29:59;96448.66;;;17.11;100.00
4598;BME280;62772;48.646;8.906;2023-07-16T06:35:00;96440.28;;;17.32;100.00
4598;BME280;62772;48.646;8.906;2023-07-16T06:40:00;96435.41;;;17.37;100.00
4598;BME280;62772;48.646;8.906;2023-07-16T06:45:01;96442.31;;;17.19;100.00
4598;BME280;62772;48.646;8.906;2023-07-16T06:50:02;96454.75;;;16.92;100.00
4598;BME280;62772;48.646;8.906;2023-07-16T06:55:03;96463.81;;;16.99;100.00
4598;BME280;62772;48.646;8.906;2023-07-16T07:00:05;96452.75;;;16.89;100.00
4598;BME280;62772;48.646;8.906;2023-07-16T07:05:07;96444.41;;;16.94;100.00
4598;BME280;62772;48.646;8.906;2023-07-16T07:10:08;96440.22;;;17.28;100.00
4598;BME280;62772;48.646;8.906;2023-07-16T07:15:08;96444.38;;;17.41;100.00
4598;BME280;62772;48.646;8.906;2023-07-16T07:20:09;96454.56;;;17.48;100.00
4598;BME280;62772;48.646;8.906;2023-07-16T07:25:10;96465.81;;;17.34;100.00
4598;BME280;62772;48.646;8.906;2023-07-16T07:30:11;96472.22;;;17.62;100.00
4598;BME280;62772;48.646;8.906;2023-07-16T07:35:11;96474.34;;;17.72;100.00
4598;BME280;62772;48.646;8.906;2023-07-16T07:40:12;96472.34;;;17.69;100.00
4598;BME280;62772;48.646;8.906;2023-07-16T07:45:13;96466.72;;;17.74;100.00
4598;BME280;62772;48.646;8.906;2023-07-16T07:50:14;96476.09;;;17.80;100.00
4598;BME280;62772;48.646;8.906;2023-07-16T07:55:14;96482.56;;;17.75;100.00
4598;BME280;62772;48.646;8.906;2023-07-16T08:00:15;96482.34;;;18.00;100.00
4598;BME280;62772;48.646;8.906;2023-07-16T08:05:16;96473.25;;;18.28;100.00
4598;BME280;62772;48.646;8.906;2023-07-16T08:10:16;96475.22;;;18.11;100.00
4598;BME280;62772;48.646;8.906;2023-07-16T08:15:17;96471.31;;;18.48;100.00
4598;BME280;62772;48.646;8.906;2023-07-16T08:20:18;96451.81;;;18.58;100.00
4598;BME280;62772;48.646;8.906;2023-07-16T08:25:19;96445.38;;;18.86;100.00
4598;BME280;62772;48.646;8.906;2023-07-16T08:30:19;96457.03;;;18.90;100.00
4598;BME280;62772;48.646;8.906;2023-07-16T08:35:19;96466.66;;;19.11;100.00
4598;BME280;62772;48.646;8.906;2023-07-16T08:40:20;96462.63;;;19.01;100.00
4598;BME280;62772;48.646;8.906;2023-07-16T08:45:21;96468.47;;;19.03;100.00
4598;BME280;62772;48.646;8.906;2023-07-16T08:50:24;96475.19;;;19.36;100.00
4598;BME280;62772;48.646;8.906;2023-07-16T08:55:25;96477.28;;;19.46;100.00
4598;BME280;62772;48.646;8.906;2023-07-16T09:00:26;96478.25;;;19.61;100.00
4598;BME280;62772;48.646;8.906;2023-07-16T09:05:26;96481.75;;;19.62;100.00
4598;BME280;62772;48.646;8.906;2023-07-16T09:10:27;96471.84;;;18.77;100.00
4598;BME280;62772;48.646;8.906;2023-07-16T09:15:28;96493.06;;;19.17;100.00
4598;BME280;62772;48.646;8.906;2023-07-16T09:20:29;96472.91;;;18.72;100.00
4598;BME280;62772;48.646;8.906;2023-07-16T09:25:31;96474.25;;;19.01;100.00
4598;BME280;62772;48.646;8.906;2023-07-16T09:30:32;96472.50;;;19.13;100.00
4598;BME280;62772;48.646;8.906;2023-07-16T09:35:35;96472.78;;;18.84;100.00
4598;BME280;62772;48.646;8.906;2023-07-16T09:40:39;96462.88;;;19.42;100.00
4598;BME280;62772;48.646;8.906;2023-07-16T09:45:42;96467.00;;;19.59;98.24
4598;BME280;62772;48.646;8.906;2023-07-16T09:50:49;96466.56;;;20.10;100.00
4598;BME280;62772;48.646;8.906;2023-07-16T09:55:52;96479.38;;;20.14;98.08
4598;BME280;62772;48.646;8.906;2023-07-16T10:00:54;96474.31;;;20.76;95.94
4598;BME280;62772;48.646;8.906;2023-07-16T10:06:05;96485.56;;;20.75;93.14
4598;BME280;62772;48.646;8.906;2023-07-16T10:11:16;96482.59;;;20.23;92.18
4598;BME280;62772;48.646;8.906;2023-07-16T10:16:20;96477.22;;;20.60;89.89
4598;BME280;62772;48.646;8.906;2023-07-16T10:21:25;96458.31;;;20.68;90.82
4598;BME280;62772;48.646;8.906;2023-07-16T10:26:27;96469.72;;;20.46;90.13
4598;BME280;62772;48.646;8.906;2023-07-16T10:31:29;96469.13;;;21.01;90.28
4598;BME280;62772;48.646;8.906;2023-07-16T10:36:30;96457.88;;;20.62;87.70
4598;BME280;62772;48.646;8.906;2023-07-16T10:41:31;96453.75;;;20.38;92.30
4598;BME280;62772;48.646;8.906;2023-07-16T10:46:36;96464.63;;;20.41;90.48
4598;BME280;62772;48.646;8.906;2023-07-16T10:51:36;96455.84;;;20.93;90.45
4598;BME280;62772;48.646;8.906;2023-07-16T10:56:37;96468.03;;;20.69;90.11
4598;BME280;62772;48.646;8.906;2023-07-16T11:01:38;96455.69;;;20.41;89.55
4598;BME280;62772;48.646;8.906;2023-07-16T11:06:38;96451.19;;;20.52;86.07
4598;BME280;62772;48.646;8.906;2023-07-16T11:11:39;96453.84;;;21.31;87.25
4598;BME280;62772;48.646;8.906;2023-07-16T11:16:40;96445.91;;;21.08;89.12
4598;BME280;62772;48.646;8.906;2023-07-16T11:21:41;96456.50;;;21.24;85.03
4598;BME280;62772;48.646;8.906;2023-07-16T11:26:51;96449.25;;;21.38;83.73
4598;BME280;62772;48.646;8.906;2023-07-16T11:31:52;96453.25;;;21.52;80.57
4598;BME280;62772;48.646;8.906;2023-07-16T11:36:53;96452.59;;;21.69;82.78
4598;BME280;62772;48.646;8.906;2023-07-16T11:41:55;96449.06;;;21.65;81.64
4598;BME280;62772;48.646;8.906;2023-07-16T11:46:58;96450.69;;;21.81;79.55
4598;BME280;62772;48.646;8.906;2023-07-16T11:51:59;96448.09;;;21.99;78.80
4598;BME280;62772;48.646;8.906;2023-07-16T11:56:59;96421.25;;;21.93;78.84
4598;BME280;62772;48.646;8.906;2023-07-16T12:02:00;96413.56;;;22.14;81.56
4598;BME280;62772;48.646;8.906;2023-07-16T12:07:01;96417.50;;;22.27;79.37
4598;BME280;62772;48.646;8.906;2023-07-16T12:12:01;96427.13;;;22.03;80.30
4598;BME280;62772;48.646;8.906;2023-07-16T12:17:03;96411.88;;;21.77;82.58
4598;BME280;62772;48.646;8.906;2023-07-16T12:22:04;96400.34;;;22.12;77.86
4598;BME280;62772;48.646;8.906;2023-07-16T12:27:04;96406.72;;;22.45;73.67
4598;BME280;62772;48.646;8.906;2023-07-16T12:32:06;96397.44;;;22.96;78.92
4598;BME280;62772;48.646;8.906;2023-07-16T12:37:07;96396.97;;;22.48;73.88
4598;BME280;62772;48.646;8.906;2023-07-16T12:42:07;96396.25;;;22.79;78.91
4598;BME280;62772;48.646;8.906;2023-07-16T12:47:09;96402.47;;;22.73;72.26
4598;BME280;62772;48.646;8.906;2023-07-16T12:52:09;96408.69;;;22.59;72.23
4598;BME280;62772;48.646;8.906;2023-07-16T12:57:10;96392.75;;;22.79;74.30
4598;BME280;62772;48.646;8.906;2023-07-16T13:02:10;96396.63;;;22.63;71.67
4598;BME280;62772;48.646;8.906;2023-07-16T13:07:11;96393.13;;;22.77;67.29
4598;BME280;62772;48.646;8.906;2023-07-16T13:12:11;96392.00;;;23.04;71.13
4598;BME280;62772;48.646;8.906;2023-07-16T13:17:12;96388.84;;;23.01;71.47
4598;BME280;62772;48.646;8.906;2023-07-16T13:22:13;96378.78;;;23.16;69.80
4598;BME280;62772;48.646;8.906;2023-07-16T13:27:22;96379.16;;;23.00;67.65
4598;BME280;62772;48.646;8.906;2023-07-16T13:32:23;96373.31;;;22.88;70.04
4598;BME280;62772;48.646;8.906;2023-07-16T13:37:23;96373.69;;;23.04;67.55
4598;BME280;62772;48.646;8.906;2023-07-16T13:42:24;96366.69;;;22.71;66.99
4598;BME280;62772;48.646;8.906;2023-07-16T13:47:24;96379.13;;;23.04;70.91
4598;BME280;62772;48.646;8.906;2023-07-16T13:52:25;96391.56;;;22.62;67.51
4598;BME280;62772;48.646;8.906;2023-07-16T13:57:26;96383.03;;;22.81;70.37
4598;BME280;62772;48.646;8.906;2023-07-16T14:02:27;96379.53;;;23.03;66.75
4598;BME280;62772;48.646;8.906;2023-07-16T14:07:27;96376.03;;;22.62;67.43
4598;BME280;62772;48.646;8.906;2023-07-16T14:12:28;96383.84;;;23.11;72.90
4598;BME280;62772;48.646;8.906;2023-07-16T14:17:28;96382.25;;;23.31;65.74
4598;BME280;62772;48.646;8.906;2023-07-16T14:22:29;96381.41;;;23.63;63.04
4598;BME280;62772;48.646;8.906;2023-07-16T14:27:29;96391.13;;;23.75;60.98
4598;BME280;62772;48.646;8.906;2023-07-16T14:32:32;96388.03;;;23.66;65.64
4598;BME280;62772;48.646;8.906;2023-07-16T14:37:32;96390.41;;;23.46;58.80
4598;BME280;62772;48.646;8.906;2023-07-16T14:42:33;96386.47;;;23.61;68.37
4598;BME280;62772;48.646;8.906;2023-07-16T14:47:33;96383.81;;;23.29;65.63
4598;BME280;62772;48.646;8.906;2023-07-16T14:52:34;96383.81;;;23.29;69.76
4598;BME280;62772;48.646;8.906;2023-07-16T14:57:36;96376.03;;;22.84;67.78
4598;BME280;62772;48.646;8.906;2023-07-16T15:02:37;96372.53;;;23.23;67.63
4598;BME280;62772;48.646;8.906;2023-07-16T15:07:38;96358.81;;;23.66;59.02
4598;BME280;62772;48.646;8.906;2023-07-16T15:12:38;96358.00;;;23.84;59.90
4598;BME280;62772;48.646;8.906;2023-07-16T15:17:39;96352.78;;;24.18;55.38
4598;BME280;62772;48.646;8.906;2023-07-16T15:22:40;96359.53;;;23.88;59.87
4598;BME280;62772;48.646;8.906;2023-07-16T15:27:40;96355.56;;;24.07;65.09
4598;BME280;62772;48.646;8.906;2023-07-16T15:32:41;96353.75;;;23.65;67.17
4598;BME280;62772;48.646;8.906;2023-07-16T15:37:41;96354.63;;;23.40;64.69
4598;BME280;62772;48.646;8.906;2023-07-16T15:42:43;96351.06;;;23.58;65.66
4598;BME280;62772;48.646;8.906;2023-07-16T15:47:45;96343.44;;;24.16;62.17
4598;BME280;62772;48.646;8.906;2023-07-16T15:52:46;96342.81;;;24.53;58.02
4598;BME280;62772;48.646;8.906;2023-07-16T15:57:46;96345.94;;;24.48;56.56
4598;BME280;62772;48.646;8.906;2023-07-16T16:02:48;96345.81;;;25.19;57.30
4598;BME280;62772;48.646;8.906;2023-07-16T16:08:17;96352.53;;;24.61;56.55
4598;BME280;62772;48.646;8.906;2023-07-16T16:13:19;96353.84;;;24.39;66.89
4598;BME280;62772;48.646;8.906;2023-07-16T16:18:20;96348.13;;;24.12;62.40
4598;BME280;62772;48.646;8.906;2023-07-16T16:23:21;96350.72;;;23.38;60.49
4598;BME280;62772;48.646;8.906;2023-07-16T16:28:21;96352.31;;;23.24;59.80
4598;BME280;62772;48.646;8.906;2023-07-16T16:33:23;96354.50;;;23.76;64.97
4598;BME280;62772;48.646;8.906;2023-07-16T16:38:23;96347.59;;;23.32;63.02
4598;BME280;62772;48.646;8.906;2023-07-16T16:43:24;96349.16;;;23.33;64.23
4598;BME280;62772;48.646;8.906;2023-07-16T16:48:24;96352.94;;;23.75;62.31
4598;BME280;62772;48.646;8.906;2023-07-16T16:53:25;96364.97;;;23.92;57.26
4598;BME280;62772;48.646;8.906;2023-07-16T16:58:26;96351.97;;;24.21;54.63
4598;BME280;62772;48.646;8.906;2023-07-16T17:03:27;96351.69;;;24.01;58.38
4598;BME280;62772;48.646;8.906;2023-07-16T17:08:27;96345.00;;;24.09;59.04
4598;BME280;62772;48.646;8.906;2023-07-16T17:13:28;96347.97;;;23.41;58.42
4598;BME280;62772;48.646;8.906;2023-07-16T17:18:29;96344.13;;;23.17;61.63
4598;BME280;62772;48.646;8.906;2023-07-16T17:23:29;96351.13;;;23.07;62.78
4598;BME280;62772;48.646;8.906;2023-07-16T17:28:29;96353.84;;;22.82;67.63
4598;BME280;62772;48.646;8.906;2023-07-16T17:33:30;96350.38;;;22.81;67.50
4598;BME280;62772;48.646;8.906;2023-07-16T17:38:30;96352.31;;;22.77;68.67
4598;BME280;62772;48.646;8.906;2023-07-16T17:43:31;96353.06;;;22.89;69.47
4598;BME280;62772;48.646;8.906;2023-07-16T17:48:32;96362.03;;;22.64;69.26
4598;BME280;62772;48.646;8.906;2023-07-16T17:53:32;96370.59;;;22.77;70.83
4598;BME280;62772;48.646;8.906;2023-07-16T17:58:33;96374.84;;;22.74;71.78
4598;BME280;62772;48.646;8.906;2023-07-16T18:03:34;96379.53;;;22.77;68.24
4598;BME280;62772;48.646;8.906;2023-07-16T18:08:35;96379.91;;;22.69;69.87
4598;BME280;62772;48.646;8.906;2023-07-16T18:13:37;96383.41;;;23.48;68.48
4598;BME280;62772;48.646;8.906;2023-07-16T18:18:37;96390.41;;;23.35;73.23
4598;BME280;62772;48.646;8.906;2023-07-16T18:23:37;96392.41;;;23.16;73.30
4598;BME280;62772;48.646;8.906;2023-07-16T18:28:38;96385.75;;;22.96;72.81
4598;BME280;62772;48.646;8.906;2023-07-16T18:33:39;96381.47;;;22.80;72.82
4598;BME280;62772;48.646;8.906;2023-07-16T18:38:39;96383.81;;;22.89;71.23
4598;BME280;62772;48.646;8.906;2023-07-16T18:43:40;96384.47;;;22.21;79.17
4598;BME280;62772;48.646;8.906;2023-07-16T18:48:41;96374.81;;;22.45;73.81
4598;BME280;62772;48.646;8.906;2023-07-16T18:53:41;96384.53;;;22.36;75.34
4598;BME280;62772;48.646;8.906;2023-07-16T18:58:42;96383.66;;;22.10;75.64
4598;BME280;62772;48.646;8.906;2023-07-16T19:03:43;96379.13;;;22.75;77.05
4598;BME280;62772;48.646;8.906;2023-07-16T19:08:43;96380.66;;;22.62;78.20
4598;BME280;62772;48.646;8.906;2023-07-16T19:13:44;96392.25;;;22.26;80.52
4598;BME280;62772;48.646;8.906;2023-07-16T19:18:44;96400.94;;;22.90;71.87
4598;BME280;62772;48.646;8.906;2023-07-16T19:23:44;96405.56;;;22.57;73.12
4598;BME280;62772;48.646;8.906;2023-07-16T19:28:45;96406.31;;;22.50;74.52
4598;BME280;62772;48.646;8.906;2023-07-16T19:33:45;96413.09;;;21.90;77.15
4598;BME280;62772;48.646;8.906;2023-07-16T19:38:46;96417.69;;;21.79;76.69
4598;BME280;62772;48.646;8.906;2023-07-16T19:43:46;96413.34;;;22.51;73.53
4598;BME280;62772;48.646;8.906;2023-07-16T19:48:47;96413.34;;;22.73;73.48
4598;BME280;62772;48.646;8.906;2023-07-16T19:53:47;96421.53;;;22.80;73.59
4598;BME280;62772;48.646;8.906;2023-07-16T19:58:48;96429.69;;;22.73;74.04
4598;BME280;62772;48.646;8.906;2023-07-16T20:03:48;96433.88;;;22.31;78.85
4598;BME280;62772;48.646;8.906;2023-07-16T20:08:49;96437.59;;;21.97;80.65
4598;BME280;62772;48.646;8.906;2023-07-16T20:13:49;96441.19;;;22.26;80.63
4598;BME280;62772;48.646;8.906;2023-07-16T20:18:50;96447.47;;;22.31;83.55
4598;BME280;62772;48.646;8.906;2023-07-16T20:23:51;96443.97;;;22.30;84.18
4598;BME280;62772;48.646;8.906;2023-07-16T20:28:52;96450.22;;;22.38;82.21
4598;BME280;62772;48.646;8.906;2023-07-16T20:33:53;96453.84;;;21.83;85.79
4598;BME280;62772;48.646;8.906;2023-07-16T20:38:53;96459.63;;;21.26;93.84
4598;BME280;62772;48.646;8.906;2023-07-16T20:43:54;96465.22;;;21.47;90.83
4598;BME280;62772;48.646;8.906;2023-07-16T20:48:54;96469.63;;;20.70;97.91
4598;BME280;62772;48.646;8.906;2023-07-16T20:53:55;96461.00;;;20.64;100.00
4598;BME280;62772;48.646;8.906;2023-07-16T20:58:55;96462.72;;;21.20;98.38
4598;BME280;62772;48.646;8.906;2023-07-16T21:03:55;96460.16;;;21.46;95.40
4598;BME280;62772;48.646;8.906;2023-07-16T21:08:56;96470.00;;;21.58;93.70
4598;BME280;62772;48.646;8.906;2023-07-16T21:13:57;96473.63;;;21.28;94.42
4598;BME280;62772;48.646;8.906;2023-07-16T21:18:57;96486.50;;;20.59;100.00
4598;BME280;62772;48.646;8.906;2023-07-16T21:23:58;96479.56;;;20.62;100.00
4598;BME280;62772;48.646;8.906;2023-07-16T21:28:58;96489.59;;;21.36;100.00
4598;BME280;62772;48.646;8.906;2023-07-16T21:33:59;96480.03;;;21.53;100.00
4598;BME280;62772;48.646;8.906;2023-07-16T21:38:59;96486.69;;;21.15;100.00
4598;BME280;62772;48.646;8.906;2023-07-16T21:44:00;96491.00;;;20.78;100.00
4598;BME280;62772;48.646;8.906;2023-07-16T21:49:00;96494.03;;;20.39;100.00
4598;BME280;62772;48.646;8.906;2023-07-16T21:54:01;96495.72;;;20.51;100.00
4598;BME280;62772;48.646;8.906;2023-07-16T21:59:01;96499.16;;;19.61;100.00
4598;BME280;62772;48.646;8.906;2023-07-16T22:04:02;96500.69;;;19.35;100.00
4598;BME280;62772;48.646;8.906;2023-07-16T22:09:02;96498.41;;;19.37;100.00
4598;BME280;62772;48.646;8.906;2023-07-16T22:14:04;96497.41;;;19.22;100.00
4598;BME280;62772;48.646;8.906;2023-07-16T22:19:05;96490.22;;;19.10;100.00
4598;BME280;62772;48.646;8.906;2023-07-16T22:24:07;96503.28;;;19.51;100.00
4598;BME280;62772;48.646;8.906;2023-07-16T22:29:08;96507.03;;;19.69;100.00
4598;BME280;62772;48.646;8.906;2023-07-16T22:34:08;96496.81;;;18.90;100.00
4598;BME280;62772;48.646;8.906;2023-07-16T22:39:09;96522.44;;;19.15;100.00
4598;BME280;62772;48.646;8.906;2023-07-16T22:44:10;96518.88;;;19.34;100.00
4598;BME280;62772;48.646;8.906;2023-07-16T22:49:10;96519.47;;;19.24;100.00
4598;BME280;62772;48.646;8.906;2023-07-16T22:54:11;96518.56;;;19.16;100.00
4598;BME280;62772;48.646;8.906;2023-07-16T22:59:11;96523.38;;;19.03;100.00
4598;BME280;62772;48.646;8.906;2023-07-16T23:04:11;96515.50;;;19.41;100.00
4598;BME280;62772;48.646;8.906;2023-07-16T23:09:12;96521.88;;;19.29;100.00
4598;BME280;62772;48.646;8.906;2023-07-16T23:14:13;96517.47;;;19.21;100.00
4598;BME280;62772;48.646;8.906;2023-07-16T23:19:14;96519.91;;;18.83;100.00
4598;BME280;62772;48.646;8.906;2023-07-16T23:24:14;96511.47;;;19.31;100.00
4598;BME280;62772;48.646;8.906;2023-07-16T23:29:15;96522.06;;;19.40;100.00
4598;BME280;62772;48.646;8.906;2023-07-16T23:34:15;96525.28;;;18.41;100.00
4598;BME280;62772;48.646;8.906;2023-07-16T23:39:16;96528.47;;;18.66;100.00
4598;BME280;62772;48.646;8.906;2023-07-16T23:44:16;96529.38;;;18.74;100.00
4598;BME280;62772;48.646;8.906;2023-07-16T23:49:17;96521.47;;;18.84;100.00
4598;BME280;62772;48.646;8.906;2023-07-16T23:54:17;96521.13;;;18.86;100.00
4598;BME280;62772;48.646;8.906;2023-07-16T23:59:18;96524.22;;;19.08;100.00
